sensor_id;sensor_type;location;lat;lon;timestamp;pressure;altitude;pressure_sealevel;temperature;humidity
31483;BME280;18103;52.246;8.052;2022-08-11T00:01:59;100998.09;;;19.92;62.71
31483;BME280;18103;52.246;8.052;2022-08-11T00:04:26;101000.19;;;19.90;62.84
31483;BME280;18103;52.246;8.052;2022-08-11T00:07:01;101010.41;;;19.88;62.77
31483;BME280;18103;52.246;8.052;2022-08-11T00:09:37;101000.84;;;19.79;63.86
31483;BME280;18103;52.246;8.052;2022-08-11T00:12:04;100996.25;;;19.73;64.04
31483;BME280;18103;52.246;8.052;2022-08-11T00:14:36;101000.47;;;19.63;64.41
31483;BME280;18103;52.246;8.052;2022-08-11T00:17:08;101005.25;;;19.54;64.78
31483;BME280;18103;52.246;8.052;2022-08-11T00:19:38;100995.84;;;19.43;65.67
31483;BME280;18103;52.246;8.052;2022-08-11T00:22:06;100997.09;;;19.41;65.89
31483;BME280;18103;52.246;8.052;2022-08-11T00:24:37;100999.78;;;19.41;65.67
31483;BME280;18103;52.246;8.052;2022-08-11T00:27:05;101005.41;;;19.33;66.22
31483;BME280;18103;52.246;8.052;2022-08-11T00:29:31;100995.22;;;19.28;66.14
31483;BME280;18103;52.246;8.052;2022-08-11T00:32:00;101005.63;;;19.25;66.06
31483;BME280;18103;52.246;8.052;2022-08-11T00:34:29;101004.53;;;19.12;66.49
31483;BME280;18103;52.246;8.052;2022-08-11T00:37:05;101011.81;;;19.05;66.30
31483;BME280;18103;52.246;8.052;2022-08-11T00:39:33;101005.38;;;19.00;66.94
31483;BME280;18103;52.246;8.052;2022-08-11T00:42:14;100997.66;;;19.03;66.89
31483;BME280;18103;52.246;8.052;2022-08-11T00:53:32;101004.94;;;18.90;67.06
31483;BME280;18103;52.246;8.052;2022-08-11T01:05:40;101007.75;;;18.62;68.77
31483;BME280;18103;52.246;8.052;2022-08-11T01:08:29;100999.84;;;18.60;68.35
31483;BME280;18103;52.246;8.052;2022-08-11T01:11:31;101005.19;;;18.54;69.38
31483;BME280;18103;52.246;8.052;2022-08-11T01:17:30;101003.72;;;18.44;69.36
31483;BME280;18103;52.246;8.052;2022-08-11T01:46:31;101010.50;;;18.34;67.35
31483;BME280;18103;52.246;8.052;2022-08-11T01:49:22;101016.13;;;18.32;67.42
31483;BME280;18103;52.246;8.052;2022-08-11T01:52:07;101009.84;;;18.25;68.88
31483;BME280;18103;52.246;8.052;2022-08-11T02:02:37;101006.22;;;18.05;69.90
31483;BME280;18103;52.246;8.052;2022-08-11T02:08:44;101012.88;;;18.09;69.60
31483;BME280;18103;52.246;8.052;2022-08-11T02:11:21;101005.81;;;18.08;68.80
31483;BME280;18103;52.246;8.052;2022-08-11T02:17:14;101010.78;;;18.04;69.15
31483;BME280;18103;52.246;8.052;2022-08-11T02:20:04;101007.41;;;17.96;69.94
31483;BME280;18103;52.246;8.052;2022-08-11T02:23:16;101002.75;;;17.83;70.56
31483;BME280;18103;52.246;8.052;2022-08-11T02:26:21;101005.72;;;17.88;69.80
31483;BME280;18103;52.246;8.052;2022-08-11T02:32:21;101008.59;;;17.87;70.22
31483;BME280;18103;52.246;8.052;2022-08-11T02:35:26;101003.59;;;17.84;69.34
31483;BME280;18103;52.246;8.052;2022-08-11T02:38:19;100997.34;;;17.83;69.49
31483;BME280;18103;52.246;8.052;2022-08-11T02:41:15;100999.22;;;17.83;68.44
31483;BME280;18103;52.246;8.052;2022-08-11T02:46:42;101004.72;;;17.68;70.14
31483;BME280;18103;52.246;8.052;2022-08-11T02:49:18;101001.84;;;17.69;70.79
31483;BME280;18103;52.246;8.052;2022-08-11T02:52:24;101003.50;;;17.70;70.03
31483;BME280;18103;52.246;8.052;2022-08-11T02:57:42;101007.88;;;17.71;68.44
31483;BME280;18103;52.246;8.052;2022-08-11T03:00:14;101001.84;;;17.69;69.83
31483;BME280;18103;52.246;8.052;2022-08-11T03:03:00;101005.94;;;17.65;70.31
31483;BME280;18103;52.246;8.052;2022-08-11T03:06:11;101002.63;;;17.63;69.94
31483;BME280;18103;52.246;8.052;2022-08-11T03:11:41;101006.06;;;17.57;69.95
31483;BME280;18103;52.246;8.052;2022-08-11T03:14:51;101009.94;;;17.48;70.94
31483;BME280;18103;52.246;8.052;2022-08-11T03:18:16;101004.13;;;17.45;70.84
31483;BME280;18103;52.246;8.052;2022-08-11T03:21:01;101003.41;;;17.36;71.12
31483;BME280;18103;52.246;8.052;2022-08-11T03:26:32;101011.88;;;17.33;71.83
31483;BME280;18103;52.246;8.052;2022-08-11T03:29:13;101010.63;;;17.29;72.02
31483;BME280;18103;52.246;8.052;2022-08-11T03:31:45;101014.75;;;17.31;71.96
31483;BME280;18103;52.246;8.052;2022-08-11T03:34:25;100998.22;;;17.34;70.79
31483;BME280;18103;52.246;8.052;2022-08-11T03:40:19;101002.59;;;17.35;70.12
31483;BME280;18103;52.246;8.052;2022-08-11T03:43:51;101001.09;;;17.33;70.25
31483;BME280;18103;52.246;8.052;2022-08-11T04:10:21;101004.31;;;17.01;71.85
31483;BME280;18103;52.246;8.052;2022-08-11T04:18:54;100995.34;;;16.93;72.58
31483;BME280;18103;52.246;8.052;2022-08-11T04:30:11;100994.38;;;17.01;72.68
31483;BME280;18103;52.246;8.052;2022-08-11T04:43:40;100984.69;;;17.07;72.37
31483;BME280;18103;52.246;8.052;2022-08-11T04:55:52;100986.22;;;17.16;71.99
31483;BME280;18103;52.246;8.052;2022-08-11T05:13:05;100993.91;;;17.40;70.98
31483;BME280;18103;52.246;8.052;2022-08-11T05:15:59;101000.41;;;17.46;70.07
31483;BME280;18103;52.246;8.052;2022-08-11T05:18:54;100994.03;;;17.53;69.88
31483;BME280;18103;52.246;8.052;2022-08-11T05:21:42;100995.09;;;17.59;70.36
31483;BME280;18103;52.246;8.052;2022-08-11T05:24:48;100996.84;;;17.66;70.12
31483;BME280;18103;52.246;8.052;2022-08-11T05:27:43;101001.88;;;17.76;70.38
31483;BME280;18103;52.246;8.052;2022-08-11T05:30:29;100997.97;;;17.79;69.70
31483;BME280;18103;52.246;8.052;2022-08-11T05:33:20;101002.38;;;17.86;70.20
31483;BME280;18103;52.246;8.052;2022-08-11T05:36:13;101011.34;;;17.93;69.74
31483;BME280;18103;52.246;8.052;2022-08-11T05:38:49;101007.00;;;17.99;71.27
31483;BME280;18103;52.246;8.052;2022-08-11T05:41:36;101008.28;;;18.03;70.94
31483;BME280;18103;52.246;8.052;2022-08-11T05:44:20;101003.38;;;18.13;70.28
31483;BME280;18103;52.246;8.052;2022-08-11T05:47:04;101002.72;;;18.11;71.29
31483;BME280;18103;52.246;8.052;2022-08-11T05:49:50;101008.38;;;18.16;71.17
31483;BME280;18103;52.246;8.052;2022-08-11T05:52:35;101017.75;;;18.27;70.37
31483;BME280;18103;52.246;8.052;2022-08-11T05:55:19;101010.13;;;18.43;69.67
31483;BME280;18103;52.246;8.052;2022-08-11T05:58:08;101008.72;;;18.47;70.20
31483;BME280;18103;52.246;8.052;2022-08-11T06:00:43;101011.09;;;18.64;69.75
31483;BME280;18103;52.246;8.052;2022-08-11T06:03:10;101004.09;;;18.76;69.06
31483;BME280;18103;52.246;8.052;2022-08-11T06:05:38;101010.34;;;18.90;67.44
31483;BME280;18103;52.246;8.052;2022-08-11T06:08:06;101009.13;;;19.05;67.72
31483;BME280;18103;52.246;8.052;2022-08-11T06:10:35;101016.22;;;19.19;66.54
31483;BME280;18103;52.246;8.052;2022-08-11T06:13:02;101004.38;;;19.34;66.64
31483;BME280;18103;52.246;8.052;2022-08-11T06:15:31;101011.25;;;19.43;66.22
31483;BME280;18103;52.246;8.052;2022-08-11T06:17:59;101006.50;;;19.51;66.12
31483;BME280;18103;52.246;8.052;2022-08-11T06:20:28;101005.03;;;19.62;65.42
31483;BME280;18103;52.246;8.052;2022-08-11T06:23:05;101011.69;;;19.79;65.01
31483;BME280;18103;52.246;8.052;2022-08-11T06:25:32;101016.88;;;19.87;64.17
31483;BME280;18103;52.246;8.052;2022-08-11T06:28:01;101012.03;;;20.03;64.03
31483;BME280;18103;52.246;8.052;2022-08-11T06:30:44;101012.22;;;20.21;63.67
31483;BME280;18103;52.246;8.052;2022-08-11T06:33:29;101014.47;;;20.37;63.36
31483;BME280;18103;52.246;8.052;2022-08-11T06:36:09;101011.47;;;20.52;62.79
31483;BME280;18103;52.246;8.052;2022-08-11T06:38:53;101018.31;;;20.61;62.66
31483;BME280;18103;52.246;8.052;2022-08-11T06:41:26;101011.34;;;20.78;62.31
31483;BME280;18103;52.246;8.052;2022-08-11T06:46:39;101017.44;;;21.05;61.48
31483;BME280;18103;52.246;8.052;2022-08-11T06:49:07;101022.56;;;21.26;61.19
31483;BME280;18103;52.246;8.052;2022-08-11T06:52:07;101030.78;;;21.44;60.31
31483;BME280;18103;52.246;8.052;2022-08-11T06:54:42;101017.53;;;21.55;59.40
31483;BME280;18103;52.246;8.052;2022-08-11T06:57:12;101027.38;;;21.74;59.16
31483;BME280;18103;52.246;8.052;2022-08-11T06:59:58;101021.66;;;21.82;58.52
31483;BME280;18103;52.246;8.052;2022-08-11T07:03:11;101021.66;;;22.07;57.74
31483;BME280;18103;52.246;8.052;2022-08-11T07:05:48;101017.28;;;22.24;56.84
31483;BME280;18103;52.246;8.052;2022-08-11T07:14:31;101023.41;;;22.74;56.41
31483;BME280;18103;52.246;8.052;2022-08-11T07:17:21;101033.16;;;22.93;54.78
31483;BME280;18103;52.246;8.052;2022-08-11T07:19:54;101023.75;;;23.08;55.50
31483;BME280;18103;52.246;8.052;2022-08-11T07:22:40;101021.09;;;22.89;55.60
31483;BME280;18103;52.246;8.052;2022-08-11T07:25:28;101022.81;;;23.14;55.75
31483;BME280;18103;52.246;8.052;2022-08-11T07:28:17;101022.25;;;23.23;54.06
31483;BME280;18103;52.246;8.052;2022-08-11T07:31:08;101018.44;;;23.54;53.60
31483;BME280;18103;52.246;8.052;2022-08-11T07:33:50;101010.75;;;23.63;52.53
31483;BME280;18103;52.246;8.052;2022-08-11T07:36:16;101017.63;;;23.77;53.63
31483;BME280;18103;52.246;8.052;2022-08-11T07:38:46;101018.69;;;23.88;52.05
31483;BME280;18103;52.246;8.052;2022-08-11T07:41:17;101022.81;;;24.14;51.75
31483;BME280;18103;52.246;8.052;2022-08-11T07:43:49;101018.19;;;24.14;52.10
31483;BME280;18103;52.246;8.052;2022-08-11T07:46:16;101018.66;;;24.34;51.56
31483;BME280;18103;52.246;8.052;2022-08-11T07:49:02;101025.31;;;24.38;51.58
31483;BME280;18103;52.246;8.052;2022-08-11T07:51:47;101026.22;;;24.56;51.13
31483;BME280;18103;52.246;8.052;2022-08-11T07:54:31;101015.53;;;24.54;50.64
31483;BME280;18103;52.246;8.052;2022-08-11T07:56:57;101017.66;;;24.64;49.97
31483;BME280;18103;52.246;8.052;2022-08-11T07:59:23;101018.03;;;24.84;49.68
31483;BME280;18103;52.246;8.052;2022-08-11T08:02:10;101018.03;;;24.84;50.13
31483;BME280;18103;52.246;8.052;2022-08-11T08:04:56;101017.25;;;25.00;49.47
31483;BME280;18103;52.246;8.052;2022-08-11T08:07:42;101022.25;;;25.20;49.16
31483;BME280;18103;52.246;8.052;2022-08-11T08:10:26;101021.63;;;25.30;47.47
31483;BME280;18103;52.246;8.052;2022-08-11T08:13:12;101028.09;;;25.40;45.56
31483;BME280;18103;52.246;8.052;2022-08-11T08:15:57;101025.25;;;25.52;46.26
31483;BME280;18103;52.246;8.052;2022-08-11T08:18:41;101033.75;;;25.67;44.76
31483;BME280;18103;52.246;8.052;2022-08-11T08:21:10;101031.91;;;25.73;45.57
31483;BME280;18103;52.246;8.052;2022-08-11T08:23:41;101023.63;;;25.84;43.90
31483;BME280;18103;52.246;8.052;2022-08-11T08:26:10;101032.53;;;25.97;43.68
31483;BME280;18103;52.246;8.052;2022-08-11T08:28:56;101030.53;;;26.09;43.27
31483;BME280;18103;52.246;8.052;2022-08-11T08:31:42;101034.69;;;26.11;44.09
31483;BME280;18103;52.246;8.052;2022-08-11T08:34:09;101022.72;;;26.34;43.72
31483;BME280;18103;52.246;8.052;2022-08-11T08:36:36;101023.84;;;26.38;44.31
31483;BME280;18103;52.246;8.052;2022-08-11T08:39:03;101028.94;;;26.51;44.44
31483;BME280;18103;52.246;8.052;2022-08-11T08:41:31;101024.09;;;26.58;42.23
31483;BME280;18103;52.246;8.052;2022-08-11T08:44:03;101025.19;;;26.57;40.64
31483;BME280;18103;52.246;8.052;2022-08-11T08:46:35;101022.19;;;26.59;41.33
31483;BME280;18103;52.246;8.052;2022-08-11T08:49:02;101023.44;;;26.73;41.08
31483;BME280;18103;52.246;8.052;2022-08-11T08:51:31;101022.72;;;26.83;41.22
31483;BME280;18103;52.246;8.052;2022-08-11T08:54:06;101030.09;;;26.82;39.86
31483;BME280;18103;52.246;8.052;2022-08-11T08:56:32;101027.38;;;27.04;39.38
31483;BME280;18103;52.246;8.052;2022-08-11T08:59:00;101022.94;;;26.98;39.33
31483;BME280;18103;52.246;8.052;2022-08-11T09:01:37;101026.84;;;27.07;39.07
31483;BME280;18103;52.246;8.052;2022-08-11T09:04:06;101029.66;;;27.12;38.65
31483;BME280;18103;52.246;8.052;2022-08-11T09:06:39;101023.44;;;27.22;39.25
31483;BME280;18103;52.246;8.052;2022-08-11T09:09:07;101027.66;;;27.34;39.41
31483;BME280;18103;52.246;8.052;2022-08-11T09:11:35;101018.94;;;27.42;40.53
31483;BME280;18103;52.246;8.052;2022-08-11T09:14:31;101022.94;;;27.57;37.83
31483;BME280;18103;52.246;8.052;2022-08-11T09:17:19;101032.28;;;27.61;36.29
31483;BME280;18103;52.246;8.052;2022-08-11T09:19:46;101019.38;;;27.56;36.63
31483;BME280;18103;52.246;8.052;2022-08-11T09:22:12;101016.94;;;27.60;36.50
31483;BME280;18103;52.246;8.052;2022-08-11T09:24:56;101019.50;;;27.76;36.17
31483;BME280;18103;52.246;8.052;2022-08-11T09:27:41;101022.88;;;27.84;37.17
31483;BME280;18103;52.246;8.052;2022-08-11T09:30:08;101012.50;;;27.96;34.74
31483;BME280;18103;52.246;8.052;2022-08-11T09:32:37;101018.25;;;27.89;34.68
31483;BME280;18103;52.246;8.052;2022-08-11T09:35:03;100999.91;;;27.95;36.21
31483;BME280;18103;52.246;8.052;2022-08-11T09:37:31;101007.94;;;28.06;35.72
31483;BME280;18103;52.246;8.052;2022-08-11T09:40:16;101000.84;;;28.10;36.62
31483;BME280;18103;52.246;8.052;2022-08-11T09:43:00;101007.41;;;28.09;35.52
31483;BME280;18103;52.246;8.052;2022-08-11T09:45:50;101007.03;;;28.43;36.09
31483;BME280;18103;52.246;8.052;2022-08-11T09:48:20;100997.09;;;28.27;33.12
31483;BME280;18103;52.246;8.052;2022-08-11T09:50:49;101009.66;;;28.18;33.46
31483;BME280;18103;52.246;8.052;2022-08-11T09:53:16;100997.63;;;28.19;34.91
31483;BME280;18103;52.246;8.052;2022-08-11T09:55:45;101004.31;;;28.48;33.72
31483;BME280;18103;52.246;8.052;2022-08-11T09:58:13;101010.84;;;28.37;32.43
31483;BME280;18103;52.246;8.052;2022-08-11T10:00:41;101003.69;;;28.31;32.12
31483;BME280;18103;52.246;8.052;2022-08-11T10:03:17;100999.59;;;28.38;32.42
31483;BME280;18103;52.246;8.052;2022-08-11T10:05:48;100993.94;;;28.60;33.55
31483;BME280;18103;52.246;8.052;2022-08-11T10:08:36;101002.72;;;28.72;33.24
31483;BME280;18103;52.246;8.052;2022-08-11T10:11:04;101002.19;;;28.70;32.39
31483;BME280;18103;52.246;8.052;2022-08-11T10:13:32;100995.88;;;28.75;32.75
31483;BME280;18103;52.246;8.052;2022-08-11T10:16:02;100994.75;;;28.66;32.68
31483;BME280;18103;52.246;8.052;2022-08-11T10:18:36;100984.66;;;28.76;32.45
31483;BME280;18103;52.246;8.052;2022-08-11T10:21:28;100988.00;;;29.09;34.67
31483;BME280;18103;52.246;8.052;2022-08-11T10:23:57;100984.44;;;29.03;32.46
31483;BME280;18103;52.246;8.052;2022-08-11T10:26:44;100980.56;;;28.94;31.81
31483;BME280;18103;52.246;8.052;2022-08-11T10:29:27;100973.72;;;29.17;31.98
31483;BME280;18103;52.246;8.052;2022-08-11T10:32:13;100985.28;;;29.14;31.63
31483;BME280;18103;52.246;8.052;2022-08-11T10:35:02;100980.56;;;28.84;31.75
31483;BME280;18103;52.246;8.052;2022-08-11T10:37:47;100973.69;;;28.86;31.25
31483;BME280;18103;52.246;8.052;2022-08-11T10:40:17;100971.78;;;28.87;31.96
31483;BME280;18103;52.246;8.052;2022-08-11T10:42:49;100961.38;;;29.30;32.86
31483;BME280;18103;52.246;8.052;2022-08-11T10:45:35;100956.13;;;29.74;32.88
31483;BME280;18103;52.246;8.052;2022-08-11T10:48:37;100962.16;;;29.81;33.12
31483;BME280;18103;52.246;8.052;2022-08-11T10:51:03;100955.53;;;29.97;33.20
31483;BME280;18103;52.246;8.052;2022-08-11T10:53:49;100963.00;;;29.71;30.30
31483;BME280;18103;52.246;8.052;2022-08-11T10:56:36;100962.47;;;29.44;30.55
31483;BME280;18103;52.246;8.052;2022-08-11T10:59:23;100964.66;;;29.62;30.26
31483;BME280;18103;52.246;8.052;2022-08-11T11:01:51;100960.19;;;29.86;30.91
31483;BME280;18103;52.246;8.052;2022-08-11T11:04:23;100963.22;;;29.95;30.46
31483;BME280;18103;52.246;8.052;2022-08-11T11:09:27;100952.97;;;30.16;30.70
31483;BME280;18103;52.246;8.052;2022-08-11T11:15:20;100956.38;;;30.57;31.10
31483;BME280;18103;52.246;8.052;2022-08-11T11:18:08;100945.25;;;30.72;31.75
31483;BME280;18103;52.246;8.052;2022-08-11T11:26:23;100949.13;;;30.71;30.03
31483;BME280;18103;52.246;8.052;2022-08-11T11:37:00;100945.31;;;30.62;28.83
31483;BME280;18103;52.246;8.052;2022-08-11T11:39:27;100945.31;;;30.62;29.24
31483;BME280;18103;52.246;8.052;2022-08-11T11:41:58;100933.13;;;30.78;28.96
31483;BME280;18103;52.246;8.052;2022-08-11T11:44:24;100931.81;;;31.04;29.46
31483;BME280;18103;52.246;8.052;2022-08-11T11:46:51;100926.44;;;31.23;29.20
31483;BME280;18103;52.246;8.052;2022-08-11T11:49:23;100932.66;;;31.00;28.14
31483;BME280;18103;52.246;8.052;2022-08-11T11:51:50;100928.69;;;30.82;27.97
31483;BME280;18103;52.246;8.052;2022-08-11T11:54:22;100918.00;;;30.75;28.75
31483;BME280;18103;52.246;8.052;2022-08-11T11:56:49;100911.13;;;31.12;28.77
31483;BME280;18103;52.246;8.052;2022-08-11T11:59:21;100912.44;;;31.20;28.31
31483;BME280;18103;52.246;8.052;2022-08-11T12:02:10;100915.16;;;30.86;28.81
31483;BME280;18103;52.246;8.052;2022-08-11T12:04:39;100900.72;;;32.28;27.93
31483;BME280;18103;52.246;8.052;2022-08-11T12:07:07;100906.84;;;31.82;28.76
31483;BME280;18103;52.246;8.052;2022-08-11T12:09:57;100903.19;;;31.58;27.53
31483;BME280;18103;52.246;8.052;2022-08-11T12:12:24;100905.19;;;31.29;26.12
31483;BME280;18103;52.246;8.052;2022-08-11T12:15:08;100896.28;;;31.37;26.36
31483;BME280;18103;52.246;8.052;2022-08-11T12:17:35;100881.84;;;31.45;26.68
31483;BME280;18103;52.246;8.052;2022-08-11T12:20:02;100896.22;;;31.71;27.14
31483;BME280;18103;52.246;8.052;2022-08-11T12:22:28;100890.69;;;31.71;26.76
31483;BME280;18103;52.246;8.052;2022-08-11T12:25:13;100891.97;;;31.78;26.59
31483;BME280;18103;52.246;8.052;2022-08-11T12:27:58;100884.06;;;31.43;26.50
31483;BME280;18103;52.246;8.052;2022-08-11T12:30:23;100884.03;;;31.48;25.97
31483;BME280;18103;52.246;8.052;2022-08-11T12:32:49;100878.09;;;31.36;26.25
31483;BME280;18103;52.246;8.052;2022-08-11T12:35:15;100874.50;;;31.64;26.58
31483;BME280;18103;52.246;8.052;2022-08-11T12:37:48;100871.94;;;31.92;26.73
31483;BME280;18103;52.246;8.052;2022-08-11T12:40:21;100868.06;;;31.93;26.53
31483;BME280;18103;52.246;8.052;2022-08-11T12:43:13;100866.81;;;32.04;24.96
31483;BME280;18103;52.246;8.052;2022-08-11T12:45:59;100870.22;;;32.38;25.82
31483;BME280;18103;52.246;8.052;2022-08-11T12:48:43;100870.53;;;32.74;25.07
31483;BME280;18103;52.246;8.052;2022-08-11T12:51:33;100862.13;;;32.04;23.89
31483;BME280;18103;52.246;8.052;2022-08-11T12:54:32;100867.91;;;32.45;23.97
31483;BME280;18103;52.246;8.052;2022-08-11T12:57:02;100863.50;;;32.82;24.28
31483;BME280;18103;52.246;8.052;2022-08-11T12:59:49;100862.84;;;32.34;24.23
31483;BME280;18103;52.246;8.052;2022-08-11T13:02:34;100869.25;;;32.67;24.56
31483;BME280;18103;52.246;8.052;2022-08-11T13:05:20;100854.78;;;32.75;24.96
31483;BME280;18103;52.246;8.052;2022-08-11T13:07:55;100856.44;;;32.89;24.40
31483;BME280;18103;52.246;8.052;2022-08-11T13:10:21;100863.84;;;32.94;23.87
31483;BME280;18103;52.246;8.052;2022-08-11T13:13:06;100860.00;;;32.57;24.56
31483;BME280;18103;52.246;8.052;2022-08-11T13:15:35;100851.34;;;32.45;24.25
31483;BME280;18103;52.246;8.052;2022-08-11T13:18:01;100860.00;;;32.57;24.61
31483;BME280;18103;52.246;8.052;2022-08-11T13:20:27;100853.38;;;32.91;24.45
31483;BME280;18103;52.246;8.052;2022-08-11T13:22:56;100847.66;;;33.33;24.23
31483;BME280;18103;52.246;8.052;2022-08-11T13:25:24;100846.69;;;33.11;23.49
31483;BME280;18103;52.246;8.052;2022-08-11T13:27:52;100846.88;;;33.01;23.56
31483;BME280;18103;52.246;8.052;2022-08-11T13:30:22;100838.78;;;33.37;23.89
31483;BME280;18103;52.246;8.052;2022-08-11T13:33:08;100842.16;;;33.61;24.27
31483;BME280;18103;52.246;8.052;2022-08-11T13:35:34;100845.34;;;33.54;24.56
31483;BME280;18103;52.246;8.052;2022-08-11T13:38:01;100840.81;;;33.58;25.12
31483;BME280;18103;52.246;8.052;2022-08-11T13:40:28;100835.28;;;33.58;24.71
31483;BME280;18103;52.246;8.052;2022-08-11T13:42:55;100837.75;;;33.46;24.23
31483;BME280;18103;52.246;8.052;2022-08-11T13:45:23;100839.38;;;33.47;25.10
31483;BME280;18103;52.246;8.052;2022-08-11T13:47:52;100842.47;;;33.46;24.60
31483;BME280;18103;52.246;8.052;2022-08-11T13:50:22;100833.25;;;33.37;24.63
31483;BME280;18103;52.246;8.052;2022-08-11T13:53:09;100820.13;;;33.28;25.03
31483;BME280;18103;52.246;8.052;2022-08-11T13:55:37;100821.97;;;33.60;24.84
31483;BME280;18103;52.246;8.052;2022-08-11T13:58:03;100820.28;;;33.18;24.91
31483;BME280;18103;52.246;8.052;2022-08-11T14:00:29;100813.84;;;33.91;25.01
31483;BME280;18103;52.246;8.052;2022-08-11T14:02:56;100815.50;;;33.51;24.99
31483;BME280;18103;52.246;8.052;2022-08-11T14:05:26;100817.34;;;33.42;24.23
31483;BME280;18103;52.246;8.052;2022-08-11T14:08:03;100808.84;;;33.66;24.36
31483;BME280;18103;52.246;8.052;2022-08-11T14:10:32;100807.63;;;33.58;24.30
31483;BME280;18103;52.246;8.052;2022-08-11T14:13:07;100801.47;;;33.75;24.03
31483;BME280;18103;52.246;8.052;2022-08-11T14:15:52;100802.97;;;33.13;24.40
31483;BME280;18103;52.246;8.052;2022-08-11T14:18:25;100801.91;;;33.55;24.80
31483;BME280;18103;52.246;8.052;2022-08-11T14:21:00;100797.78;;;33.80;25.55
31483;BME280;18103;52.246;8.052;2022-08-11T14:23:55;100804.16;;;33.80;25.36
31483;BME280;18103;52.246;8.052;2022-08-11T14:26:24;100810.78;;;33.93;24.90
31483;BME280;18103;52.246;8.052;2022-08-11T14:28:53;100795.63;;;33.77;25.51
31483;BME280;18103;52.246;8.052;2022-08-11T14:31:21;100802.78;;;34.41;24.37
31483;BME280;18103;52.246;8.052;2022-08-11T14:33:48;100804.44;;;34.28;24.45
31483;BME280;18103;52.246;8.052;2022-08-11T14:36:14;100796.63;;;33.94;24.90
31483;BME280;18103;52.246;8.052;2022-08-11T14:38:40;100789.19;;;33.81;24.39
31483;BME280;18103;52.246;8.052;2022-08-11T14:41:07;100784.28;;;33.23;24.50
31483;BME280;18103;52.246;8.052;2022-08-11T14:43:52;100804.94;;;33.67;24.97
31483;BME280;18103;52.246;8.052;2022-08-11T14:46:39;100793.09;;;33.53;24.99
31483;BME280;18103;52.246;8.052;2022-08-11T14:49:24;100781.19;;;33.66;24.88
31483;BME280;18103;52.246;8.052;2022-08-11T14:51:50;100784.28;;;33.51;24.52
31483;BME280;18103;52.246;8.052;2022-08-11T14:54:21;100789.00;;;33.37;23.91
31483;BME280;18103;52.246;8.052;2022-08-11T14:57:07;100784.69;;;33.30;24.43
31483;BME280;18103;52.246;8.052;2022-08-11T14:59:33;100776.31;;;33.36;24.45
31483;BME280;18103;52.246;8.052;2022-08-11T15:02:02;100773.44;;;33.27;23.85
31483;BME280;18103;52.246;8.052;2022-08-11T15:04:46;100772.59;;;33.40;24.69
31483;BME280;18103;52.246;8.052;2022-08-11T15:07:12;100771.16;;;33.43;25.58
31483;BME280;18103;52.246;8.052;2022-08-11T15:09:42;100765.59;;;32.88;24.34
31483;BME280;18103;52.246;8.052;2022-08-11T15:12:12;100778.19;;;32.61;24.80
31483;BME280;18103;52.246;8.052;2022-08-11T15:14:45;100768.69;;;32.35;24.64
31483;BME280;18103;52.246;8.052;2022-08-11T15:17:30;100761.75;;;32.38;25.50
31483;BME280;18103;52.246;8.052;2022-08-11T15:20:02;100753.34;;;32.29;25.16
31483;BME280;18103;52.246;8.052;2022-08-11T15:22:47;100761.19;;;32.22;25.98
31483;BME280;18103;52.246;8.052;2022-08-11T15:25:33;100762.13;;;31.94;26.02
31483;BME280;18103;52.246;8.052;2022-08-11T15:28:00;100754.16;;;31.73;25.65
31483;BME280;18103;52.246;8.052;2022-08-11T15:30:46;100749.31;;;31.65;26.46
31483;BME280;18103;52.246;8.052;2022-08-11T15:33:35;100741.88;;;31.61;26.26
31483;BME280;18103;52.246;8.052;2022-08-11T15:36:22;100742.72;;;31.61;26.89
31483;BME280;18103;52.246;8.052;2022-08-11T15:39:29;100739.72;;;31.39;26.83
31483;BME280;18103;52.246;8.052;2022-08-11T15:42:00;100740.28;;;31.36;26.62
31483;BME280;18103;52.246;8.052;2022-08-11T15:44:50;100726.31;;;31.03;27.67
31483;BME280;18103;52.246;8.052;2022-08-11T15:48:07;100728.13;;;30.89;27.45
31483;BME280;18103;52.246;8.052;2022-08-11T15:50:38;100721.75;;;30.65;26.95
31483;BME280;18103;52.246;8.052;2022-08-11T15:53:10;100723.97;;;30.63;26.81
31483;BME280;18103;52.246;8.052;2022-08-11T15:55:39;100715.72;;;30.63;26.95
31483;BME280;18103;52.246;8.052;2022-08-11T15:58:07;100713.63;;;30.50;27.31
31483;BME280;18103;52.246;8.052;2022-08-11T16:00:52;100709.84;;;30.41;28.53
31483;BME280;18103;52.246;8.052;2022-08-11T16:03:51;100710.47;;;30.32;28.83
31483;BME280;18103;52.246;8.052;2022-08-11T16:09:11;100707.44;;;30.34;28.00
31483;BME280;18103;52.246;8.052;2022-08-11T16:11:39;100705.06;;;30.22;27.95
31483;BME280;18103;52.246;8.052;2022-08-11T16:14:07;100703.41;;;30.21;28.64
31483;BME280;18103;52.246;8.052;2022-08-11T16:16:53;100702.38;;;30.12;28.42
31483;BME280;18103;52.246;8.052;2022-08-11T16:19:22;100701.41;;;29.93;28.59
31483;BME280;18103;52.246;8.052;2022-08-11T16:21:50;100696.13;;;30.07;28.16
31483;BME280;18103;52.246;8.052;2022-08-11T16:24:19;100698.69;;;29.88;28.25
31483;BME280;18103;52.246;8.052;2022-08-11T16:26:46;100701.50;;;29.78;28.39
31483;BME280;18103;52.246;8.052;2022-08-11T16:29:13;100691.63;;;29.77;28.60
31483;BME280;18103;52.246;8.052;2022-08-11T16:31:40;100693.13;;;29.54;27.33
31483;BME280;18103;52.246;8.052;2022-08-11T16:34:06;100694.47;;;29.61;26.54
31483;BME280;18103;52.246;8.052;2022-08-11T16:36:56;100683.22;;;29.58;26.28
31483;BME280;18103;52.246;8.052;2022-08-11T16:39:42;100694.28;;;29.48;26.97
31483;BME280;18103;52.246;8.052;2022-08-11T16:42:08;100686.38;;;29.36;27.28
31483;BME280;18103;52.246;8.052;2022-08-11T16:44:54;100680.88;;;29.36;27.13
31483;BME280;18103;52.246;8.052;2022-08-11T16:47:43;100680.28;;;29.34;27.88
31483;BME280;18103;52.246;8.052;2022-08-11T16:50:14;100678.13;;;29.36;28.19